Messwerte Mwanza

Temperatur

Temperatur
°C
1593723600 0.00 0.00 19
1593727200 1.00 1.00
1593730800 2.00 2.00
1593734400 3.00 3.00 20
1593738000 4.00 4.00
1593741600 5.00 5.00 20
1593745200 6.00 6.00 19
1593748800 7.00 7.00 20
1593752400 8.00 8.00 19
1593756000 9.00 9.00 20
1593759600 10.00 10.00 23
1593763200 11.00 11.00 25
1593766800 12.00 12.00 27
1593770400 13.00 13.00
1593774000 14.00 14.00 29
1593777600 15.00 15.00 29
1593781200 16.00 16.00 29
1593784800 17.00 17.00 28
1593788400 18.00 18.00 28
1593792000 19.00 19.00 28
1593795600 20.00 20.00
1593799200 21.00 21.00 24
1593802800 22.00 22.00 24
1593806400 23.00 23.00 23

Aktuellste Messwerte

Wettercharakter
Wetter: meist klar
Temperatur
23 °C
Feuchtigkeit
50 %
Wind
0 km/h, -
Luftdruck
1016 hPa
Messzeit: 3. Juli 2020, 23.00Datenquelle: METAR

Weitere Messstationen in der Nähe

Messstation Temperatur Entfernung
Musoma - 145 km
Bukoba - 176 km
Entebbe - 285 km
Tabora - 290 km
Kigali 18 °C 316 km
Kisumu - 333 km
Arusha - 422 km

Wind

Windrichtung Böen Mittelwind
° km/h km/h
1593723600 0.00 23.00 - 0.00 180° 10
1593727200 1.00 0.00 - 1.00
1593730800 2.00 1.00 - 2.00
1593734400 3.00 2.00 - 3.00 140° 15
1593738000 4.00 3.00 - 4.00
1593741600 5.00 4.00 - 5.00 160° 20
1593745200 6.00 5.00 - 6.00 150° 15
1593748800 7.00 6.00 - 7.00 120° 10
1593752400 8.00 7.00 - 8.00 150° 10
1593756000 9.00 8.00 - 9.00 120° 10
1593759600 10.00 9.00 - 10.00 150° 20
1593763200 11.00 10.00 - 11.00 150° 25
1593766800 12.00 11.00 - 12.00 150° 20
1593770400 13.00 12.00 - 13.00
1593774000 14.00 13.00 - 14.00 180° 10
1593777600 15.00 14.00 - 15.00 180° 20
1593781200 16.00 15.00 - 16.00 160° 10
1593784800 17.00 16.00 - 17.00 180° 20
1593788400 18.00 17.00 - 18.00 180° 20
1593792000 19.00 18.00 - 19.00 180° 10
1593795600 20.00 19.00 - 20.00 0
1593799200 21.00 20.00 - 21.00 0
1593802800 22.00 21.00 - 22.00 0
1593806400 23.00 22.00 - 23.00 0

Ihre Wetterstation

Fehlt Ihre Wetterstation auf unserem Portal?

Schreiben Sie an network@meteonews.ch